createdAt,value
2022-09-07T00:00:09.618Z,10.73
2022-09-07T00:02:36.447Z,8.65
2022-09-07T00:05:03.397Z,10.57
2022-09-07T00:07:30.739Z,11.02
2022-09-07T00:09:57.528Z,10.75
2022-09-07T00:12:24.436Z,10.55
2022-09-07T00:14:51.254Z,9.43
2022-09-07T00:17:18.073Z,11.27
2022-09-07T00:19:44.892Z,8.88
2022-09-07T00:22:11.648Z,9.35
2022-09-07T00:24:38.445Z,9.13
2022-09-07T00:27:05.437Z,8.60
2022-09-07T00:29:32.233Z,9.70
2022-09-07T00:31:59.071Z,9.23
2022-09-07T00:34:25.918Z,8.57
2022-09-07T00:36:52.738Z,9.27
2022-09-07T00:39:19.536Z,10.07
2022-09-07T00:41:46.424Z,10.10
2022-09-07T00:44:38.128Z,12.93
2022-09-07T00:47:09.896Z,9.48
2022-09-07T00:49:38.605Z,9.75
2022-09-07T00:52:10.109Z,9.55
2022-09-07T00:54:44.793Z,9.38
2022-09-07T00:57:12.082Z,10.32
2022-09-07T00:59:45.588Z,9.80
2022-09-07T01:02:14.806Z,10.07
2022-09-07T01:04:42.136Z,8.68
2022-09-07T01:07:09.095Z,9.15
2022-09-07T01:09:36.590Z,9.32
2022-09-07T01:12:04.775Z,9.45
2022-09-07T01:14:46.204Z,8.85
2022-09-07T01:17:39.813Z,9.43
2022-09-07T01:20:29.970Z,8.68
2022-09-07T01:23:25.759Z,9.57
2022-09-07T01:26:16.772Z,9.02
2022-09-07T01:28:47.362Z,9.98
2022-09-07T01:31:21.415Z,10.27
2022-09-07T01:33:54.449Z,10.30
2022-09-07T01:36:37.272Z,10.82
2022-09-07T01:39:05.759Z,11.40
2022-09-07T01:41:52.450Z,12.23
2022-09-07T01:44:28.664Z,10.10
2022-09-07T01:47:21.846Z,9.27
2022-09-07T01:49:55.270Z,8.65
2022-09-07T01:52:42.655Z,9.95
2022-09-07T01:55:19.323Z,10.57
2022-09-07T01:57:54.758Z,10.90
2022-09-07T02:00:21.616Z,13.50
2022-09-07T02:02:58.674Z,11.02
2022-09-07T02:05:36.278Z,13.15
2022-09-07T02:08:14.243Z,11.35
2022-09-07T02:10:55.923Z,11.02
2022-09-07T02:13:46.262Z,13.48
2022-09-07T02:16:19.510Z,12.05
2022-09-07T02:18:50.036Z,11.63
2022-09-07T02:21:22.098Z,11.02
2022-09-07T02:23:57.078Z,9.57
2022-09-07T02:26:28.104Z,9.93
2022-09-07T02:28:55.762Z,11.10
2022-09-07T02:31:23.288Z,11.50
2022-09-07T02:33:50.287Z,10.05
2022-09-07T02:36:21.515Z,11.25
2022-09-07T02:38:48.381Z,10.82
2022-09-07T02:41:47.673Z,10.73
2022-09-07T02:44:37.194Z,11.48
2022-09-07T02:47:09.802Z,10.85
2022-09-07T02:50:11.225Z,10.23
2022-09-07T02:52:59.307Z,9.82
2022-09-07T02:55:38.000Z,9.18
2022-09-07T02:58:38.373Z,13.18
2022-09-07T03:01:17.210Z,11.68
2022-09-07T03:03:44.046Z,13.43
2022-09-07T03:06:23.463Z,12.20
2022-09-07T03:08:54.656Z,12.23
2022-09-07T03:11:22.589Z,12.95
2022-09-07T03:13:49.373Z,12.60
2022-09-07T03:16:16.714Z,11.55
2022-09-07T03:18:45.097Z,13.55
2022-09-07T03:21:12.147Z,12.57
2022-09-07T03:23:39.238Z,13.43
2022-09-07T03:26:06.357Z,11.45
2022-09-07T03:28:33.191Z,10.65
2022-09-07T03:31:02.139Z,11.65
2022-09-07T03:33:29.128Z,11.98
2022-09-07T03:36:02.486Z,10.60
2022-09-07T03:38:31.273Z,11.20
2022-09-07T03:41:02.089Z,10.85
2022-09-07T03:43:29.845Z,11.68
2022-09-07T03:46:02.954Z,12.55
2022-09-07T03:48:34.578Z,11.75
2022-09-07T03:51:09.873Z,11.50
2022-09-07T03:53:39.688Z,12.68
2022-09-07T03:56:16.098Z,9.90
2022-09-07T03:58:42.896Z,11.15
2022-09-07T04:01:12.943Z,13.57
2022-09-07T04:03:39.924Z,12.57
2022-09-07T04:06:07.072Z,14.82
2022-09-07T04:08:35.547Z,14.50
2022-09-07T04:11:04.293Z,13.57
2022-09-07T04:13:32.652Z,13.93
2022-09-07T04:15:59.430Z,15.32
2022-09-07T04:18:26.539Z,14.82
2022-09-07T04:20:53.327Z,15.15
2022-09-07T04:23:20.629Z,16.95
2022-09-07T04:25:48.961Z,13.68
2022-09-07T04:28:16.922Z,14.27
2022-09-07T04:30:43.801Z,14.38
2022-09-07T04:33:11.285Z,14.35
2022-09-07T04:35:39.501Z,13.02
2022-09-07T04:38:07.380Z,13.68
2022-09-07T04:40:36.125Z,14.77
2022-09-07T04:43:03.141Z,14.18
2022-09-07T04:45:29.932Z,13.23
2022-09-07T04:47:56.792Z,13.55
2022-09-07T04:50:24.607Z,12.43
2022-09-07T04:52:51.607Z,13.38
2022-09-07T04:55:18.986Z,9.70
2022-09-07T04:57:49.897Z,10.15
2022-09-07T05:00:17.288Z,9.45
2022-09-07T05:02:44.179Z,9.85
2022-09-07T05:05:11.023Z,10.27
2022-09-07T05:07:37.852Z,9.68
2022-09-07T05:10:05.179Z,9.50
2022-09-07T05:12:31.958Z,13.30
2022-09-07T05:14:58.979Z,9.38
2022-09-07T05:17:25.755Z,8.52
2022-09-07T05:19:52.571Z,9.45
2022-09-07T05:22:19.382Z,8.95
2022-09-07T05:24:47.488Z,8.32
2022-09-07T05:27:14.380Z,9.60
2022-09-07T05:32:27.928Z,7.80
2022-09-07T05:34:54.760Z,8.35
2022-09-07T05:37:21.674Z,9.65
2022-09-07T05:39:48.644Z,7.40
2022-09-07T05:42:15.531Z,7.45
2022-09-07T05:49:40.958Z,7.43
2022-09-07T05:52:07.834Z,7.45
2022-09-07T05:54:35.028Z,8.27
2022-09-07T05:57:03.699Z,9.10
2022-09-07T05:59:30.727Z,7.07
2022-09-07T06:01:57.543Z,7.30
2022-09-07T06:04:24.438Z,7.25
2022-09-07T06:07:18.092Z,7.10
2022-09-07T06:12:25.890Z,7.25
2022-09-07T06:14:52.711Z,8.00
2022-09-07T06:17:19.769Z,6.85
2022-09-07T06:19:46.547Z,7.15
2022-09-07T06:22:13.402Z,6.82
2022-09-07T06:24:40.256Z,6.45
2022-09-07T06:27:07.032Z,6.20
2022-09-07T06:29:33.842Z,6.55
2022-09-07T06:34:47.379Z,6.47
2022-09-07T06:37:14.468Z,7.35
2022-09-07T06:39:41.352Z,6.68
2022-09-07T06:42:08.356Z,6.78
2022-09-07T06:44:42.073Z,8.65
2022-09-07T06:47:08.889Z,8.25
2022-09-07T06:49:35.657Z,7.78
2022-09-07T06:52:02.714Z,5.50
2022-09-07T06:57:16.367Z,7.90
2022-09-07T06:59:43.294Z,7.95
2022-09-07T07:02:14.840Z,7.05
2022-09-07T07:07:12.834Z,9.40
2022-09-07T07:09:40.556Z,13.05
2022-09-07T07:12:07.431Z,12.18
2022-09-07T07:14:37.244Z,11.82
2022-09-07T07:17:07.059Z,16.83
2022-09-07T07:19:34.827Z,11.23
2022-09-07T07:24:48.435Z,8.52
2022-09-07T07:27:15.516Z,6.50
2022-09-07T07:29:42.318Z,7.75
2022-09-07T07:32:09.160Z,8.43
2022-09-07T07:34:35.993Z,7.20
2022-09-07T07:37:02.846Z,8.98
2022-09-07T07:42:16.631Z,6.63
2022-09-07T07:44:43.396Z,6.70
2022-09-07T07:47:10.274Z,9.93
2022-09-07T07:49:37.021Z,7.95
2022-09-07T07:54:50.856Z,7.75
2022-09-07T07:57:19.046Z,6.65
2022-09-07T07:59:46.242Z,5.78
2022-09-07T08:02:17.198Z,8.35
2022-09-07T08:04:44.073Z,10.23
2022-09-07T08:07:12.115Z,9.63
2022-09-07T08:09:46.872Z,14.75
2022-09-07T08:12:16.995Z,7.13
2022-09-07T08:14:44.201Z,8.38
2022-09-07T08:17:13.246Z,9.57
2022-09-07T08:19:40.181Z,7.93
2022-09-07T08:22:08.792Z,7.65
2022-09-07T08:24:35.576Z,12.65
2022-09-07T08:27:04.102Z,8.75
2022-09-07T08:29:34.445Z,8.73
2022-09-07T08:32:04.020Z,7.97
2022-09-07T08:34:30.906Z,6.55
2022-09-07T08:36:57.591Z,7.75
2022-09-07T08:39:24.321Z,6.07
2022-09-07T08:42:12.865Z,6.60
2022-09-07T08:45:11.686Z,7.30
2022-09-07T08:47:49.140Z,6.05
2022-09-07T08:50:30.325Z,8.75
2022-09-07T08:52:57.234Z,7.45
2022-09-07T08:55:30.070Z,6.97
2022-09-07T08:58:02.888Z,5.60
2022-09-07T09:00:30.090Z,7.70
2022-09-07T09:06:06.079Z,6.90
2022-09-07T09:09:09.653Z,6.07
2022-09-07T09:11:55.321Z,6.30
2022-09-07T09:14:50.280Z,6.00
2022-09-07T09:17:26.308Z,6.88
2022-09-07T09:20:35.568Z,8.10
2022-09-07T09:23:10.499Z,7.32
2022-09-07T09:25:39.795Z,7.82
2022-09-07T09:28:11.841Z,7.35
2022-09-07T09:30:38.795Z,6.95
2022-09-07T09:33:26.530Z,7.03
2022-09-07T09:35:55.791Z,6.28
2022-09-07T09:38:31.210Z,9.27
2022-09-07T09:41:09.902Z,7.65
2022-09-07T09:43:55.940Z,6.75
2022-09-07T09:46:33.942Z,7.07
2022-09-07T09:49:17.201Z,6.45
2022-09-07T09:54:41.168Z,11.15
2022-09-07T09:57:16.275Z,5.88
2022-09-07T10:00:02.731Z,9.45
2022-09-07T10:05:37.778Z,8.00
2022-09-07T10:08:19.288Z,6.60
2022-09-07T10:10:52.166Z,6.85
2022-09-07T10:13:22.293Z,6.03
2022-09-07T10:15:55.204Z,6.57
2022-09-07T10:18:33.623Z,6.35
2022-09-07T10:21:22.979Z,6.72
2022-09-07T10:24:00.698Z,6.97
2022-09-07T10:26:32.186Z,6.85
2022-09-07T10:29:15.185Z,7.20
2022-09-07T10:31:54.455Z,8.70
2022-09-07T10:34:27.142Z,7.07
2022-09-07T10:37:08.492Z,8.40
2022-09-07T10:39:41.652Z,6.85
2022-09-07T10:42:35.710Z,7.88
2022-09-07T10:45:11.677Z,8.38
2022-09-07T10:48:07.195Z,7.95
2022-09-07T10:50:48.185Z,7.35
2022-09-07T10:53:46.547Z,8.05
2022-09-07T10:56:35.634Z,6.20
2022-09-07T10:59:26.748Z,8.75
2022-09-07T11:01:58.504Z,6.93
2022-09-07T11:05:03.388Z,6.63
2022-09-07T11:07:36.030Z,7.57
2022-09-07T11:10:33.938Z,7.35
2022-09-07T11:13:05.335Z,5.65
2022-09-07T11:15:45.965Z,5.85
2022-09-07T11:18:20.426Z,6.80
2022-09-07T11:20:59.029Z,6.28
2022-09-07T11:23:32.029Z,5.80
2022-09-07T11:26:30.819Z,8.02
2022-09-07T11:32:20.344Z,6.90
2022-09-07T11:34:55.471Z,5.43
2022-09-07T11:37:36.854Z,5.85
2022-09-07T11:40:17.231Z,6.25
2022-09-07T11:43:05.437Z,6.13
2022-09-07T11:45:49.666Z,5.80
2022-09-07T11:48:43.649Z,5.82
2022-09-07T11:51:25.532Z,5.78
2022-09-07T11:54:00.920Z,8.05
2022-09-07T11:56:38.352Z,6.20
2022-09-07T11:59:05.004Z,5.80
2022-09-07T12:01:50.518Z,6.07
2022-09-07T12:04:46.607Z,6.97
2022-09-07T12:07:30.544Z,5.55
2022-09-07T12:10:25.857Z,5.25
2022-09-07T12:13:31.215Z,6.47
2022-09-07T12:16:07.821Z,5.78
2022-09-07T12:19:05.632Z,5.45
2022-09-07T12:21:38.360Z,7.10
2022-09-07T12:24:25.083Z,7.72
2022-09-07T12:26:52.542Z,5.63
2022-09-07T12:29:25.079Z,5.97
2022-09-07T12:32:52.567Z,6.43
2022-09-07T12:34:52.887Z,6.60
2022-09-07T12:37:37.753Z,8.45
2022-09-07T12:40:33.259Z,5.55
2022-09-07T12:43:14.944Z,6.65
2022-09-07T12:48:15.007Z,6.28
2022-09-07T12:51:03.455Z,5.85
2022-09-07T12:53:56.937Z,7.18
2022-09-07T13:00:08.435Z,8.45
2022-09-07T13:03:06.046Z,5.70
2022-09-07T13:05:39.055Z,6.07
2022-09-07T13:08:31.292Z,6.78
2022-09-07T13:11:22.163Z,6.45
2022-09-07T13:14:03.842Z,6.13
2022-09-07T13:19:47.005Z,9.10
2022-09-07T13:22:32.346Z,5.97
2022-09-07T13:25:01.492Z,5.93
2022-09-07T13:28:04.383Z,5.75
2022-09-07T13:30:54.815Z,5.03
2022-09-07T13:33:24.697Z,5.85
2022-09-07T13:36:03.041Z,4.88
2022-09-07T13:38:31.807Z,6.28
2022-09-07T13:41:06.384Z,5.47
2022-09-07T13:43:34.902Z,5.25
2022-09-07T13:46:09.381Z,5.13
2022-09-07T13:48:49.787Z,8.02
2022-09-07T13:51:43.246Z,5.45
2022-09-07T13:54:37.847Z,5.10
2022-09-07T13:57:20.173Z,5.13
2022-09-07T13:59:50.809Z,5.38
2022-09-07T14:02:32.348Z,5.90
2022-09-07T14:05:00.604Z,5.60
2022-09-07T14:07:29.730Z,6.65
2022-09-07T14:10:11.569Z,5.57
2022-09-07T14:12:44.519Z,8.07
2022-09-07T14:15:21.017Z,7.95
2022-09-07T14:17:48.940Z,5.70
2022-09-07T14:20:18.041Z,8.70
2022-09-07T14:22:48.350Z,5.28
2022-09-07T14:25:19.109Z,19.40
2022-09-07T14:27:47.890Z,4.93
2022-09-07T14:30:16.285Z,5.65
2022-09-07T14:32:44.115Z,5.25
2022-09-07T14:35:15.778Z,4.88
2022-09-07T14:40:22.138Z,12.73
2022-09-07T14:42:50.095Z,6.75
2022-09-07T14:45:22.818Z,5.43
2022-09-07T14:47:55.343Z,5.90
2022-09-07T14:50:33.808Z,7.95
2022-09-07T14:56:02.241Z,5.82
2022-09-07T14:58:32.570Z,5.32
2022-09-07T15:04:01.963Z,6.70
2022-09-07T15:09:28.216Z,4.38
2022-09-07T15:12:27.182Z,5.78
2022-09-07T15:15:21.447Z,7.80
2022-09-07T15:17:48.719Z,4.82
2022-09-07T15:20:32.577Z,5.05
2022-09-07T15:22:59.545Z,8.35
2022-09-07T15:25:26.256Z,5.90
2022-09-07T15:27:54.506Z,5.07
2022-09-07T15:30:21.171Z,4.93
2022-09-07T15:32:47.921Z,4.85
2022-09-07T15:35:15.862Z,5.50
2022-09-07T15:40:33.265Z,5.57
2022-09-07T15:43:00.705Z,5.70
2022-09-07T15:45:27.827Z,4.72
2022-09-07T15:47:54.713Z,5.50
2022-09-07T15:50:23.252Z,4.90
2022-09-07T15:52:50.177Z,6.28
2022-09-07T15:55:17.389Z,6.95
2022-09-07T15:57:48.790Z,5.72
2022-09-07T16:00:17.623Z,5.28
2022-09-07T16:05:31.687Z,7.75
2022-09-07T16:10:55.957Z,5.72
2022-09-07T16:13:24.354Z,4.97
2022-09-07T16:15:51.568Z,8.63
2022-09-07T16:18:18.672Z,6.82
2022-09-07T16:20:45.736Z,16.50
2022-09-07T16:23:15.144Z,29.52
2022-09-07T16:25:54.224Z,15.77
2022-09-07T16:28:21.065Z,7.43
2022-09-07T16:30:48.146Z,15.10
2022-09-07T16:33:15.263Z,16.70
2022-09-07T16:35:42.252Z,9.93
2022-09-07T16:40:55.874Z,6.70
2022-09-07T16:43:23.021Z,7.07
2022-09-07T16:46:03.967Z,6.75
2022-09-07T16:48:33.053Z,11.18
2022-09-07T16:51:02.668Z,14.05
2022-09-07T16:53:31.359Z,16.23
2022-09-07T16:56:12.305Z,15.18
2022-09-07T16:58:44.571Z,14.13
2022-09-07T17:01:14.873Z,13.05
2022-09-07T17:03:42.663Z,12.48
2022-09-07T17:06:11.429Z,8.77
2022-09-07T17:08:39.900Z,13.95
2022-09-07T17:11:10.327Z,9.63
2022-09-07T17:13:39.067Z,12.38
2022-09-07T17:16:08.388Z,9.18
2022-09-07T17:21:23.117Z,18.08
2022-09-07T17:23:55.117Z,11.27
2022-09-07T17:26:26.035Z,10.05
2022-09-07T17:29:00.248Z,7.70
2022-09-07T17:34:20.082Z,6.82
2022-09-07T17:36:47.225Z,9.43
2022-09-07T17:39:16.458Z,8.88
2022-09-07T17:41:45.239Z,13.88
2022-09-07T17:44:12.072Z,10.52
2022-09-07T17:46:39.135Z,8.90
2022-09-07T17:49:10.139Z,9.82
2022-09-07T17:51:37.260Z,9.03
2022-09-07T17:54:10.268Z,8.27
2022-09-07T17:56:39.044Z,7.95
2022-09-07T18:01:54.204Z,8.45
2022-09-07T18:04:21.802Z,9.68
2022-09-07T18:06:49.004Z,21.23
2022-09-07T18:09:15.811Z,26.95
2022-09-07T18:11:47.100Z,19.92
2022-09-07T18:14:15.417Z,11.88
2022-09-07T18:16:44.983Z,11.20
2022-09-07T18:19:12.822Z,7.40
2022-09-07T18:21:42.110Z,8.25
2022-09-07T18:24:13.995Z,10.48
2022-09-07T18:26:41.212Z,8.38
2022-09-07T18:29:19.243Z,9.68
2022-09-07T18:31:55.273Z,11.48
2022-09-07T18:34:22.399Z,8.95
2022-09-07T18:36:49.162Z,7.72
2022-09-07T18:39:16.180Z,8.25
2022-09-07T18:41:43.027Z,8.95
2022-09-07T18:46:56.542Z,8.32
2022-09-07T18:49:23.579Z,12.63
2022-09-07T18:54:38.575Z,8.50
2022-09-07T18:57:06.669Z,12.40
2022-09-07T18:59:33.880Z,13.32
2022-09-07T19:02:04.242Z,15.68
2022-09-07T19:07:20.603Z,10.45
2022-09-07T19:09:48.367Z,18.63
2022-09-07T19:12:15.724Z,13.60
2022-09-07T19:14:42.637Z,13.00
2022-09-07T19:17:12.834Z,13.13
2022-09-07T19:19:40.046Z,10.57
2022-09-07T19:22:06.723Z,15.80
2022-09-07T19:24:33.569Z,12.05
2022-09-07T19:27:01.075Z,12.18
2022-09-07T19:29:28.672Z,8.27
2022-09-07T19:32:04.823Z,10.90
2022-09-07T19:34:36.757Z,9.75
2022-09-07T19:37:07.045Z,13.18
2022-09-07T19:39:34.425Z,10.45
2022-09-07T19:42:03.816Z,10.05
2022-09-07T19:44:31.047Z,13.60
2022-09-07T19:46:57.990Z,8.85
2022-09-07T19:49:24.775Z,10.05
2022-09-07T19:51:52.150Z,9.38
2022-09-07T19:54:19.294Z,7.88
2022-09-07T19:56:46.298Z,8.73
2022-09-07T19:59:14.047Z,11.20
2022-09-07T20:01:45.895Z,9.73
2022-09-07T20:06:48.149Z,9.57
2022-09-07T20:09:14.948Z,12.85
2022-09-07T20:11:46.130Z,8.63
2022-09-07T20:14:14.702Z,8.68
2022-09-07T20:16:41.872Z,10.40
2022-09-07T20:19:11.037Z,12.45
2022-09-07T20:21:37.974Z,9.85
2022-09-07T20:24:04.834Z,9.40
2022-09-07T20:26:32.524Z,10.35
2022-09-07T20:29:16.727Z,10.05
2022-09-07T20:31:47.310Z,10.98
2022-09-07T20:34:14.411Z,17.98
2022-09-07T20:36:41.425Z,9.48
2022-09-07T20:39:08.677Z,10.15
2022-09-07T20:41:35.440Z,10.35
2022-09-07T20:44:04.199Z,9.77
2022-09-07T20:46:31.639Z,12.80
2022-09-07T20:48:58.838Z,11.48
2022-09-07T20:51:26.092Z,9.95
2022-09-07T20:53:53.351Z,10.15
2022-09-07T20:56:25.913Z,10.07
2022-09-07T20:59:00.487Z,10.68
2022-09-07T21:01:28.947Z,11.70
2022-09-07T21:03:58.073Z,10.88
2022-09-07T21:06:26.359Z,10.95
2022-09-07T21:08:54.670Z,12.57
2022-09-07T21:11:33.654Z,12.70
2022-09-07T21:14:08.524Z,12.82
2022-09-07T21:16:36.408Z,11.30
2022-09-07T21:19:05.945Z,10.60
2022-09-07T21:21:39.162Z,12.55
2022-09-07T21:24:07.885Z,11.85
2022-09-07T21:26:35.028Z,9.98
2022-09-07T21:29:05.053Z,12.10
2022-09-07T21:31:33.631Z,9.68
2022-09-07T21:34:01.743Z,10.20
2022-09-07T21:36:29.347Z,11.80
2022-09-07T21:38:56.719Z,10.90
2022-09-07T21:41:25.285Z,11.90
2022-09-07T21:43:59.624Z,10.60
2022-09-07T21:46:27.378Z,14.73
2022-09-07T21:48:55.860Z,10.23
2022-09-07T21:51:24.182Z,9.75
2022-09-07T21:53:55.600Z,10.20
2022-09-07T21:56:22.369Z,11.90
2022-09-07T21:58:53.987Z,10.93
2022-09-07T22:01:21.569Z,12.15
2022-09-07T22:03:52.880Z,12.45
2022-09-07T22:06:19.622Z,11.50
2022-09-07T22:08:46.708Z,14.35
2022-09-07T22:11:17.436Z,13.82
2022-09-07T22:13:44.681Z,13.90
2022-09-07T22:16:12.661Z,13.30
2022-09-07T22:18:43.557Z,13.73
2022-09-07T22:21:16.135Z,13.07
2022-09-07T22:23:48.802Z,13.43
2022-09-07T22:26:19.438Z,13.90
2022-09-07T22:28:46.827Z,15.25
2022-09-07T22:31:17.245Z,15.15
2022-09-07T22:33:45.403Z,12.40
2022-09-07T22:36:24.107Z,12.20
2022-09-07T22:38:53.273Z,12.23
2022-09-07T22:41:23.131Z,13.55
2022-09-07T22:43:51.073Z,12.75
2022-09-07T22:46:20.464Z,14.93
2022-09-07T22:48:47.436Z,12.30
2022-09-07T22:51:14.576Z,15.93
2022-09-07T22:53:43.066Z,12.50
2022-09-07T22:56:18.594Z,12.13
2022-09-07T22:58:49.853Z,12.55
2022-09-07T23:01:16.851Z,14.33
2022-09-07T23:03:44.678Z,11.15
2022-09-07T23:06:30.426Z,13.88
2022-09-07T23:08:59.631Z,11.70
2022-09-07T23:11:26.894Z,13.95
2022-09-07T23:13:55.898Z,12.43
2022-09-07T23:16:22.862Z,13.23
2022-09-07T23:18:49.984Z,11.68
2022-09-07T23:21:17.121Z,12.30
2022-09-07T23:23:44.479Z,13.07
2022-09-07T23:26:11.387Z,11.55
2022-09-07T23:28:38.077Z,13.27
2022-09-07T23:31:04.910Z,11.85
2022-09-07T23:33:31.899Z,12.48
2022-09-07T23:36:04.659Z,12.98
2022-09-07T23:38:32.485Z,12.55
2022-09-07T23:41:00.602Z,12.75
2022-09-07T23:43:28.761Z,12.32
2022-09-07T23:45:56.401Z,13.90
2022-09-07T23:48:23.747Z,13.35
2022-09-07T23:50:50.494Z,12.85
2022-09-07T23:53:18.132Z,12.90
2022-09-07T23:55:46.010Z,14.73
2022-09-07T23:58:12.770Z,13.95
